sensor_id;sensor_type;location;lat;lon;timestamp;P1;durP1;ratioP1;P2;durP2;ratioP2
45522;SDS011;31254;51.680;5.394;2022-07-01T00:02:05;26.33;;;19.27;;
45522;SDS011;31254;51.680;5.394;2022-07-01T00:04:32;26.98;;;20.48;;
45522;SDS011;31254;51.680;5.394;2022-07-01T00:07:01;25.88;;;18.98;;
45522;SDS011;31254;51.680;5.394;2022-07-01T00:09:27;24.73;;;17.20;;
45522;SDS011;31254;51.680;5.394;2022-07-01T00:11:54;24.92;;;17.63;;
45522;SDS011;31254;51.680;5.394;2022-07-01T00:14:23;25.10;;;17.25;;
45522;SDS011;31254;51.680;5.394;2022-07-01T00:16:52;23.38;;;16.50;;
45522;SDS011;31254;51.680;5.394;2022-07-01T00:19:19;19.73;;;15.45;;
45522;SDS011;31254;51.680;5.394;2022-07-01T00:21:46;26.35;;;15.05;;
45522;SDS011;31254;51.680;5.394;2022-07-01T00:24:13;19.00;;;14.98;;
45522;SDS011;31254;51.680;5.394;2022-07-01T00:26:39;19.90;;;15.35;;
45522;SDS011;31254;51.680;5.394;2022-07-01T00:29:06;20.67;;;14.60;;
45522;SDS011;31254;51.680;5.394;2022-07-01T00:31:33;20.52;;;15.20;;
45522;SDS011;31254;51.680;5.394;2022-07-01T00:34:00;18.05;;;14.00;;
45522;SDS011;31254;51.680;5.394;2022-07-01T00:36:26;18.30;;;14.00;;
45522;SDS011;31254;51.680;5.394;2022-07-01T00:38:56;20.77;;;14.10;;
45522;SDS011;31254;51.680;5.394;2022-07-01T00:41:24;16.92;;;13.45;;
45522;SDS011;31254;51.680;5.394;2022-07-01T00:43:51;17.88;;;13.10;;
45522;SDS011;31254;51.680;5.394;2022-07-01T00:46:20;20.20;;;13.40;;
45522;SDS011;31254;51.680;5.394;2022-07-01T00:48:48;16.48;;;12.88;;
45522;SDS011;31254;51.680;5.394;2022-07-01T00:51:17;17.95;;;13.27;;
45522;SDS011;31254;51.680;5.394;2022-07-01T00:53:44;20.55;;;13.68;;
45522;SDS011;31254;51.680;5.394;2022-07-01T00:56:11;17.75;;;13.77;;
45522;SDS011;31254;51.680;5.394;2022-07-01T00:58:39;20.55;;;15.00;;
45522;SDS011;31254;51.680;5.394;2022-07-01T01:01:08;20.85;;;15.35;;
45522;SDS011;31254;51.680;5.394;2022-07-01T01:03:34;21.35;;;15.68;;
45522;SDS011;31254;51.680;5.394;2022-07-01T01:06:02;21.63;;;15.85;;
45522;SDS011;31254;51.680;5.394;2022-07-01T01:08:29;22.38;;;16.55;;
45522;SDS011;31254;51.680;5.394;2022-07-01T01:10:56;23.40;;;17.10;;
45522;SDS011;31254;51.680;5.394;2022-07-01T01:13:23;24.75;;;17.30;;
45522;SDS011;31254;51.680;5.394;2022-07-01T01:15:49;22.17;;;16.92;;
45522;SDS011;31254;51.680;5.394;2022-07-01T01:18:16;23.77;;;17.38;;
45522;SDS011;31254;51.680;5.394;2022-07-01T01:20:42;24.90;;;17.92;;
45522;SDS011;31254;51.680;5.394;2022-07-01T01:23:11;26.80;;;17.80;;
45522;SDS011;31254;51.680;5.394;2022-07-01T01:25:38;27.65;;;18.50;;
45522;SDS011;31254;51.680;5.394;2022-07-01T01:28:05;25.63;;;18.15;;
45522;SDS011;31254;51.680;5.394;2022-07-01T01:30:31;27.55;;;19.73;;
45522;SDS011;31254;51.680;5.394;2022-07-01T01:32:58;30.67;;;20.02;;
45522;SDS011;31254;51.680;5.394;2022-07-01T01:35:25;32.10;;;20.83;;
45522;SDS011;31254;51.680;5.394;2022-07-01T01:37:52;28.38;;;19.85;;
45522;SDS011;31254;51.680;5.394;2022-07-01T01:40:18;30.48;;;21.00;;
45522;SDS011;31254;51.680;5.394;2022-07-01T01:42:45;32.38;;;21.30;;
45522;SDS011;31254;51.680;5.394;2022-07-01T01:45:12;33.13;;;21.15;;
45522;SDS011;31254;51.680;5.394;2022-07-01T01:47:39;33.15;;;22.00;;
45522;SDS011;31254;51.680;5.394;2022-07-01T01:50:08;34.53;;;21.45;;
45522;SDS011;31254;51.680;5.394;2022-07-01T01:52:37;35.92;;;22.25;;
45522;SDS011;31254;51.680;5.394;2022-07-01T01:55:09;31.75;;;21.75;;
45522;SDS011;31254;51.680;5.394;2022-07-01T01:57:36;34.05;;;22.52;;
45522;SDS011;31254;51.680;5.394;2022-07-01T02:00:04;31.65;;;20.98;;
45522;SDS011;31254;51.680;5.394;2022-07-01T02:02:35;32.95;;;20.98;;
45522;SDS011;31254;51.680;5.394;2022-07-01T02:05:06;33.17;;;22.58;;
45522;SDS011;31254;51.680;5.394;2022-07-01T02:07:36;35.65;;;21.52;;
45522;SDS011;31254;51.680;5.394;2022-07-01T02:10:03;32.42;;;20.80;;
45522;SDS011;31254;51.680;5.394;2022-07-01T02:12:30;38.17;;;22.10;;
45522;SDS011;31254;51.680;5.394;2022-07-01T02:14:58;38.78;;;22.60;;
45522;SDS011;31254;51.680;5.394;2022-07-01T02:17:24;34.95;;;21.70;;
45522;SDS011;31254;51.680;5.394;2022-07-01T02:19:55;36.35;;;23.00;;
45522;SDS011;31254;51.680;5.394;2022-07-01T02:22:22;36.72;;;22.63;;
45522;SDS011;31254;51.680;5.394;2022-07-01T02:24:48;38.95;;;23.05;;
45522;SDS011;31254;51.680;5.394;2022-07-01T02:27:15;37.13;;;23.55;;
45522;SDS011;31254;51.680;5.394;2022-07-01T02:29:41;35.25;;;22.98;;
45522;SDS011;31254;51.680;5.394;2022-07-01T02:32:08;38.50;;;22.70;;
45522;SDS011;31254;51.680;5.394;2022-07-01T02:34:35;40.60;;;24.63;;
45522;SDS011;31254;51.680;5.394;2022-07-01T02:37:04;38.97;;;23.98;;
45522;SDS011;31254;51.680;5.394;2022-07-01T02:39:33;38.53;;;23.65;;
45522;SDS011;31254;51.680;5.394;2022-07-01T02:42:00;39.83;;;24.17;;
45522;SDS011;31254;51.680;5.394;2022-07-01T02:44:46;45.25;;;24.83;;
45522;SDS011;31254;51.680;5.394;2022-07-01T02:47:12;35.80;;;22.95;;
45522;SDS011;31254;51.680;5.394;2022-07-01T02:49:39;38.53;;;24.67;;
45522;SDS011;31254;51.680;5.394;2022-07-01T02:52:06;36.67;;;24.52;;
45522;SDS011;31254;51.680;5.394;2022-07-01T02:54:32;37.72;;;25.40;;
45522;SDS011;31254;51.680;5.394;2022-07-01T02:56:59;43.58;;;24.65;;
45522;SDS011;31254;51.680;5.394;2022-07-01T02:59:28;39.83;;;24.42;;
45522;SDS011;31254;51.680;5.394;2022-07-01T03:01:55;40.42;;;24.85;;
45522;SDS011;31254;51.680;5.394;2022-07-01T03:04:22;37.50;;;24.67;;
45522;SDS011;31254;51.680;5.394;2022-07-01T03:06:51;37.72;;;24.05;;
45522;SDS011;31254;51.680;5.394;2022-07-01T03:09:20;37.45;;;23.92;;
45522;SDS011;31254;51.680;5.394;2022-07-01T03:11:47;42.83;;;26.25;;
45522;SDS011;31254;51.680;5.394;2022-07-01T03:14:13;37.05;;;24.65;;
45522;SDS011;31254;51.680;5.394;2022-07-01T03:16:40;41.58;;;24.50;;
45522;SDS011;31254;51.680;5.394;2022-07-01T03:19:07;39.75;;;24.20;;
45522;SDS011;31254;51.680;5.394;2022-07-01T03:21:35;41.13;;;24.15;;
45522;SDS011;31254;51.680;5.394;2022-07-01T03:24:02;38.42;;;24.67;;
45522;SDS011;31254;51.680;5.394;2022-07-01T03:26:31;39.55;;;24.35;;
45522;SDS011;31254;51.680;5.394;2022-07-01T03:29:03;41.00;;;24.63;;
45522;SDS011;31254;51.680;5.394;2022-07-01T03:31:30;45.65;;;26.35;;
45522;SDS011;31254;51.680;5.394;2022-07-01T03:33:57;45.03;;;25.77;;
45522;SDS011;31254;51.680;5.394;2022-07-01T03:36:24;43.55;;;25.58;;
45522;SDS011;31254;51.680;5.394;2022-07-01T03:38:51;41.55;;;24.42;;
45522;SDS011;31254;51.680;5.394;2022-07-01T03:41:17;41.55;;;23.95;;
45522;SDS011;31254;51.680;5.394;2022-07-01T03:43:44;37.58;;;24.33;;
45522;SDS011;31254;51.680;5.394;2022-07-01T03:46:10;41.45;;;23.55;;
45522;SDS011;31254;51.680;5.394;2022-07-01T03:48:38;40.30;;;24.60;;
45522;SDS011;31254;51.680;5.394;2022-07-01T03:51:09;39.53;;;24.25;;
45522;SDS011;31254;51.680;5.394;2022-07-01T03:53:36;41.25;;;23.95;;
45522;SDS011;31254;51.680;5.394;2022-07-01T03:56:24;41.97;;;24.02;;
45522;SDS011;31254;51.680;5.394;2022-07-01T03:58:50;39.80;;;24.52;;
45522;SDS011;31254;51.680;5.394;2022-07-01T04:01:17;44.00;;;24.65;;
45522;SDS011;31254;51.680;5.394;2022-07-01T04:03:44;39.90;;;24.10;;
45522;SDS011;31254;51.680;5.394;2022-07-01T04:06:10;40.97;;;23.73;;
45522;SDS011;31254;51.680;5.394;2022-07-01T04:08:37;40.22;;;24.40;;
45522;SDS011;31254;51.680;5.394;2022-07-01T04:11:04;41.58;;;24.75;;
45522;SDS011;31254;51.680;5.394;2022-07-01T04:13:34;42.60;;;25.98;;
45522;SDS011;31254;51.680;5.394;2022-07-01T04:16:03;40.45;;;23.65;;
45522;SDS011;31254;51.680;5.394;2022-07-01T04:18:30;37.13;;;23.20;;
45522;SDS011;31254;51.680;5.394;2022-07-01T04:20:57;40.92;;;24.17;;
45522;SDS011;31254;51.680;5.394;2022-07-01T04:23:43;38.92;;;22.50;;
45522;SDS011;31254;51.680;5.394;2022-07-01T04:26:13;36.88;;;22.73;;
45522;SDS011;31254;51.680;5.394;2022-07-01T04:29:02;42.65;;;22.80;;
45522;SDS011;31254;51.680;5.394;2022-07-01T04:31:29;40.60;;;21.85;;
45522;SDS011;31254;51.680;5.394;2022-07-01T04:33:56;39.65;;;23.98;;
45522;SDS011;31254;51.680;5.394;2022-07-01T04:36:23;40.45;;;24.73;;
45522;SDS011;31254;51.680;5.394;2022-07-01T04:38:49;40.78;;;24.10;;
45522;SDS011;31254;51.680;5.394;2022-07-01T04:41:16;40.45;;;25.10;;
45522;SDS011;31254;51.680;5.394;2022-07-01T04:44:02;40.53;;;23.92;;
45522;SDS011;31254;51.680;5.394;2022-07-01T04:46:29;41.92;;;24.17;;
45522;SDS011;31254;51.680;5.394;2022-07-01T04:48:55;39.25;;;23.70;;
45522;SDS011;31254;51.680;5.394;2022-07-01T04:51:22;41.88;;;24.55;;
45522;SDS011;31254;51.680;5.394;2022-07-01T04:53:49;37.35;;;23.98;;
45522;SDS011;31254;51.680;5.394;2022-07-01T04:56:18;40.83;;;24.58;;
45522;SDS011;31254;51.680;5.394;2022-07-01T04:58:45;44.22;;;24.90;;
45522;SDS011;31254;51.680;5.394;2022-07-01T05:01:11;38.85;;;24.52;;
45522;SDS011;31254;51.680;5.394;2022-07-01T05:03:38;42.00;;;25.50;;
45522;SDS011;31254;51.680;5.394;2022-07-01T05:06:05;42.67;;;25.05;;
45522;SDS011;31254;51.680;5.394;2022-07-01T05:08:32;43.20;;;24.73;;
45522;SDS011;31254;51.680;5.394;2022-07-01T05:10:58;39.75;;;24.73;;
45522;SDS011;31254;51.680;5.394;2022-07-01T05:13:25;41.75;;;25.60;;
45522;SDS011;31254;51.680;5.394;2022-07-01T05:15:52;38.80;;;23.83;;
45522;SDS011;31254;51.680;5.394;2022-07-01T05:18:21;43.33;;;22.95;;
45522;SDS011;31254;51.680;5.394;2022-07-01T05:21:08;37.30;;;24.20;;
45522;SDS011;31254;51.680;5.394;2022-07-01T05:23:53;41.65;;;24.27;;
45522;SDS011;31254;51.680;5.394;2022-07-01T05:26:20;40.95;;;24.75;;
45522;SDS011;31254;51.680;5.394;2022-07-01T05:28:47;37.05;;;23.40;;
45522;SDS011;31254;51.680;5.394;2022-07-01T05:31:14;42.63;;;24.55;;
45522;SDS011;31254;51.680;5.394;2022-07-01T05:33:41;38.63;;;23.15;;
45522;SDS011;31254;51.680;5.394;2022-07-01T05:36:08;41.45;;;22.23;;
45522;SDS011;31254;51.680;5.394;2022-07-01T05:38:35;36.78;;;22.20;;
45522;SDS011;31254;51.680;5.394;2022-07-01T05:41:02;32.05;;;20.30;;
45522;SDS011;31254;51.680;5.394;2022-07-01T05:43:28;32.42;;;20.20;;
45522;SDS011;31254;51.680;5.394;2022-07-01T05:45:56;33.33;;;20.13;;
45522;SDS011;31254;51.680;5.394;2022-07-01T05:48:23;29.58;;;20.85;;
45522;SDS011;31254;51.680;5.394;2022-07-01T05:50:50;29.45;;;19.52;;
45522;SDS011;31254;51.680;5.394;2022-07-01T05:53:17;32.03;;;18.92;;
45522;SDS011;31254;51.680;5.394;2022-07-01T05:55:47;31.23;;;19.20;;
45522;SDS011;31254;51.680;5.394;2022-07-01T05:58:14;29.25;;;19.45;;
45522;SDS011;31254;51.680;5.394;2022-07-01T06:00:41;27.73;;;19.17;;
45522;SDS011;31254;51.680;5.394;2022-07-01T06:03:12;31.20;;;18.67;;
45522;SDS011;31254;51.680;5.394;2022-07-01T06:05:40;32.72;;;19.13;;
45522;SDS011;31254;51.680;5.394;2022-07-01T06:08:07;32.85;;;18.98;;
45522;SDS011;31254;51.680;5.394;2022-07-01T06:10:37;23.63;;;16.63;;
45522;SDS011;31254;51.680;5.394;2022-07-01T06:13:04;24.73;;;16.63;;
45522;SDS011;31254;51.680;5.394;2022-07-01T06:15:31;23.42;;;16.20;;
45522;SDS011;31254;51.680;5.394;2022-07-01T06:17:58;21.88;;;15.30;;
45522;SDS011;31254;51.680;5.394;2022-07-01T06:20:24;22.92;;;13.98;;
45522;SDS011;31254;51.680;5.394;2022-07-01T06:22:51;21.05;;;13.52;;
45522;SDS011;31254;51.680;5.394;2022-07-01T06:25:18;24.17;;;14.35;;
45522;SDS011;31254;51.680;5.394;2022-07-01T06:27:45;16.98;;;12.88;;
45522;SDS011;31254;51.680;5.394;2022-07-01T06:30:14;21.20;;;13.13;;
45522;SDS011;31254;51.680;5.394;2022-07-01T06:32:41;19.70;;;12.95;;
45522;SDS011;31254;51.680;5.394;2022-07-01T06:35:07;19.83;;;12.13;;
45522;SDS011;31254;51.680;5.394;2022-07-01T06:37:35;19.65;;;12.10;;
45522;SDS011;31254;51.680;5.394;2022-07-01T06:40:03;19.75;;;12.48;;
45522;SDS011;31254;51.680;5.394;2022-07-01T06:42:30;18.00;;;11.65;;
45522;SDS011;31254;51.680;5.394;2022-07-01T06:44:58;16.65;;;10.30;;
45522;SDS011;31254;51.680;5.394;2022-07-01T06:47:25;18.23;;;10.82;;
45522;SDS011;31254;51.680;5.394;2022-07-01T06:49:51;19.10;;;10.23;;
45522;SDS011;31254;51.680;5.394;2022-07-01T06:52:20;19.42;;;10.15;;
45522;SDS011;31254;51.680;5.394;2022-07-01T06:54:47;15.05;;;8.75;;
45522;SDS011;31254;51.680;5.394;2022-07-01T06:57:13;16.45;;;9.18;;
45522;SDS011;31254;51.680;5.394;2022-07-01T06:59:40;17.30;;;9.50;;
45522;SDS011;31254;51.680;5.394;2022-07-01T07:02:06;13.57;;;8.38;;
45522;SDS011;31254;51.680;5.394;2022-07-01T07:04:33;12.32;;;7.35;;
45522;SDS011;31254;51.680;5.394;2022-07-01T07:07:21;12.43;;;7.30;;
45522;SDS011;31254;51.680;5.394;2022-07-01T07:09:47;12.27;;;7.10;;
45522;SDS011;31254;51.680;5.394;2022-07-01T07:12:14;12.73;;;6.75;;
45522;SDS011;31254;51.680;5.394;2022-07-01T07:14:40;12.23;;;7.07;;
45522;SDS011;31254;51.680;5.394;2022-07-01T07:17:09;12.23;;;5.93;;
45522;SDS011;31254;51.680;5.394;2022-07-01T07:19:36;11.00;;;5.20;;
45522;SDS011;31254;51.680;5.394;2022-07-01T07:22:03;9.93;;;5.20;;
45522;SDS011;31254;51.680;5.394;2022-07-01T07:24:30;10.07;;;5.72;;
45522;SDS011;31254;51.680;5.394;2022-07-01T07:26:56;9.90;;;5.03;;
45522;SDS011;31254;51.680;5.394;2022-07-01T07:29:25;9.15;;;4.43;;
45522;SDS011;31254;51.680;5.394;2022-07-01T07:31:52;8.13;;;4.40;;
45522;SDS011;31254;51.680;5.394;2022-07-01T07:34:19;8.20;;;4.80;;
45522;SDS011;31254;51.680;5.394;2022-07-01T07:36:45;9.00;;;4.13;;
45522;SDS011;31254;51.680;5.394;2022-07-01T07:39:12;8.43;;;3.25;;
45522;SDS011;31254;51.680;5.394;2022-07-01T07:41:41;8.35;;;2.90;;
45522;SDS011;31254;51.680;5.394;2022-07-01T07:44:08;6.57;;;3.05;;
45522;SDS011;31254;51.680;5.394;2022-07-01T07:46:34;6.50;;;2.70;;
45522;SDS011;31254;51.680;5.394;2022-07-01T07:49:01;5.20;;;2.38;;
45522;SDS011;31254;51.680;5.394;2022-07-01T07:51:30;7.60;;;2.80;;
45522;SDS011;31254;51.680;5.394;2022-07-01T07:53:57;7.47;;;3.13;;
45522;SDS011;31254;51.680;5.394;2022-07-01T07:56:23;10.25;;;2.97;;
45522;SDS011;31254;51.680;5.394;2022-07-01T07:58:50;8.40;;;2.88;;
45522;SDS011;31254;51.680;5.394;2022-07-01T08:01:17;5.45;;;2.70;;
45522;SDS011;31254;51.680;5.394;2022-07-01T08:03:43;5.25;;;2.70;;
45522;SDS011;31254;51.680;5.394;2022-07-01T08:06:11;8.82;;;2.65;;
45522;SDS011;31254;51.680;5.394;2022-07-01T08:08:38;6.93;;;2.10;;
45522;SDS011;31254;51.680;5.394;2022-07-01T08:11:07;4.60;;;2.00;;
45522;SDS011;31254;51.680;5.394;2022-07-01T08:13:34;5.35;;;2.47;;
45522;SDS011;31254;51.680;5.394;2022-07-01T08:16:01;4.15;;;2.42;;
45522;SDS011;31254;51.680;5.394;2022-07-01T08:18:27;8.75;;;2.42;;
45522;SDS011;31254;51.680;5.394;2022-07-01T08:20:54;6.03;;;1.77;;
45522;SDS011;31254;51.680;5.394;2022-07-01T08:23:21;3.00;;;1.30;;
45522;SDS011;31254;51.680;5.394;2022-07-01T08:25:49;4.22;;;1.70;;
45522;SDS011;31254;51.680;5.394;2022-07-01T08:28:16;6.05;;;1.30;;
45522;SDS011;31254;51.680;5.394;2022-07-01T08:30:46;3.97;;;1.23;;
45522;SDS011;31254;51.680;5.394;2022-07-01T08:33:15;5.93;;;1.42;;
45522;SDS011;31254;51.680;5.394;2022-07-01T08:35:41;7.22;;;1.48;;
45522;SDS011;31254;51.680;5.394;2022-07-01T08:38:08;2.30;;;0.80;;
45522;SDS011;31254;51.680;5.394;2022-07-01T08:40:35;5.32;;;1.58;;
45522;SDS011;31254;51.680;5.394;2022-07-01T08:43:03;3.67;;;1.35;;
45522;SDS011;31254;51.680;5.394;2022-07-01T08:45:33;2.92;;;1.30;;
45522;SDS011;31254;51.680;5.394;2022-07-01T08:48:05;3.83;;;1.00;;
45522;SDS011;31254;51.680;5.394;2022-07-01T08:50:36;5.43;;;1.30;;
45522;SDS011;31254;51.680;5.394;2022-07-01T08:53:04;2.53;;;0.90;;
45522;SDS011;31254;51.680;5.394;2022-07-01T08:55:32;3.78;;;1.30;;
45522;SDS011;31254;51.680;5.394;2022-07-01T08:58:23;3.50;;;1.27;;
45522;SDS011;31254;51.680;5.394;2022-07-01T09:00:51;4.95;;;1.40;;
45522;SDS011;31254;51.680;5.394;2022-07-01T09:03:24;8.48;;;1.30;;
45522;SDS011;31254;51.680;5.394;2022-07-01T09:05:52;3.60;;;1.00;;
45522;SDS011;31254;51.680;5.394;2022-07-01T09:08:18;4.57;;;1.20;;
45522;SDS011;31254;51.680;5.394;2022-07-01T09:10:45;3.70;;;1.42;;
45522;SDS011;31254;51.680;5.394;2022-07-01T09:13:13;5.35;;;1.02;;
45522;SDS011;31254;51.680;5.394;2022-07-01T09:15:40;3.00;;;1.42;;
45522;SDS011;31254;51.680;5.394;2022-07-01T09:20:42;7.82;;;1.98;;
45522;SDS011;31254;51.680;5.394;2022-07-01T09:23:12;2.38;;;1.40;;
45522;SDS011;31254;51.680;5.394;2022-07-01T09:25:43;4.93;;;1.65;;
45522;SDS011;31254;51.680;5.394;2022-07-01T09:28:23;4.10;;;1.20;;
45522;SDS011;31254;51.680;5.394;2022-07-01T09:30:53;2.70;;;1.23;;
45522;SDS011;31254;51.680;5.394;2022-07-01T09:33:24;4.55;;;1.60;;
45522;SDS011;31254;51.680;5.394;2022-07-01T09:35:53;4.57;;;1.30;;
45522;SDS011;31254;51.680;5.394;2022-07-01T09:38:21;5.03;;;1.42;;
45522;SDS011;31254;51.680;5.394;2022-07-01T09:41:02;6.93;;;1.45;;
45522;SDS011;31254;51.680;5.394;2022-07-01T09:43:31;3.97;;;1.17;;
45522;SDS011;31254;51.680;5.394;2022-07-01T09:46:10;3.80;;;1.10;;
45522;SDS011;31254;51.680;5.394;2022-07-01T09:51:05;5.60;;;1.30;;
45522;SDS011;31254;51.680;5.394;2022-07-01T09:53:40;4.63;;;1.10;;
45522;SDS011;31254;51.680;5.394;2022-07-01T09:56:06;4.15;;;0.75;;
45522;SDS011;31254;51.680;5.394;2022-07-01T09:58:33;4.38;;;1.02;;
45522;SDS011;31254;51.680;5.394;2022-07-01T10:01:02;3.30;;;1.05;;
45522;SDS011;31254;51.680;5.394;2022-07-01T10:03:30;6.72;;;1.90;;
45522;SDS011;31254;51.680;5.394;2022-07-01T10:14:32;4.40;;;1.00;;
45522;SDS011;31254;51.680;5.394;2022-07-01T10:17:05;3.50;;;1.15;;
45522;SDS011;31254;51.680;5.394;2022-07-01T10:19:32;2.65;;;0.80;;
45522;SDS011;31254;51.680;5.394;2022-07-01T10:22:01;5.18;;;1.08;;
45522;SDS011;31254;51.680;5.394;2022-07-01T10:24:55;4.10;;;0.90;;
45522;SDS011;31254;51.680;5.394;2022-07-01T10:27:23;6.13;;;0.88;;
45522;SDS011;31254;51.680;5.394;2022-07-01T10:30:11;4.93;;;1.00;;
45522;SDS011;31254;51.680;5.394;2022-07-01T10:32:57;2.47;;;0.70;;
45522;SDS011;31254;51.680;5.394;2022-07-01T10:35:35;4.22;;;0.98;;
45522;SDS011;31254;51.680;5.394;2022-07-01T10:38:02;2.03;;;0.85;;
45522;SDS011;31254;51.680;5.394;2022-07-01T10:40:42;5.00;;;1.00;;
45522;SDS011;31254;51.680;5.394;2022-07-01T10:43:16;6.47;;;0.90;;
45522;SDS011;31254;51.680;5.394;2022-07-01T10:45:57;4.28;;;1.42;;
45522;SDS011;31254;51.680;5.394;2022-07-01T10:48:28;3.67;;;0.82;;
45522;SDS011;31254;51.680;5.394;2022-07-01T10:50:57;6.57;;;0.65;;
45522;SDS011;31254;51.680;5.394;2022-07-01T10:53:24;5.97;;;1.05;;
45522;SDS011;31254;51.680;5.394;2022-07-01T10:56:16;2.92;;;0.80;;
45522;SDS011;31254;51.680;5.394;2022-07-01T10:58:44;1.95;;;0.80;;
45522;SDS011;31254;51.680;5.394;2022-07-01T11:01:11;2.78;;;0.70;;
45522;SDS011;31254;51.680;5.394;2022-07-01T11:03:37;4.88;;;1.00;;
45522;SDS011;31254;51.680;5.394;2022-07-01T11:06:07;3.45;;;1.10;;
45522;SDS011;31254;51.680;5.394;2022-07-01T11:08:34;1.92;;;0.70;;
45522;SDS011;31254;51.680;5.394;2022-07-01T11:11:01;4.45;;;1.10;;
45522;SDS011;31254;51.680;5.394;2022-07-01T11:13:30;5.97;;;0.85;;
45522;SDS011;31254;51.680;5.394;2022-07-01T11:15:57;3.05;;;0.93;;
45522;SDS011;31254;51.680;5.394;2022-07-01T11:18:26;5.72;;;0.90;;
45522;SDS011;31254;51.680;5.394;2022-07-01T11:21:02;5.15;;;0.85;;
45522;SDS011;31254;51.680;5.394;2022-07-01T11:23:29;1.60;;;0.70;;
45522;SDS011;31254;51.680;5.394;2022-07-01T11:25:58;2.97;;;0.85;;
45522;SDS011;31254;51.680;5.394;2022-07-01T11:28:25;1.70;;;0.68;;
45522;SDS011;31254;51.680;5.394;2022-07-01T11:31:01;2.65;;;0.50;;
45522;SDS011;31254;51.680;5.394;2022-07-01T11:33:27;4.15;;;0.80;;
45522;SDS011;31254;51.680;5.394;2022-07-01T11:35:58;2.70;;;0.55;;
45522;SDS011;31254;51.680;5.394;2022-07-01T11:38:44;1.90;;;0.70;;
45522;SDS011;31254;51.680;5.394;2022-07-01T11:41:30;3.30;;;0.63;;
45522;SDS011;31254;51.680;5.394;2022-07-01T11:43:57;3.40;;;0.70;;
45522;SDS011;31254;51.680;5.394;2022-07-01T11:46:23;4.90;;;0.80;;
45522;SDS011;31254;51.680;5.394;2022-07-01T11:48:51;2.58;;;0.60;;
45522;SDS011;31254;51.680;5.394;2022-07-01T11:51:22;4.10;;;0.80;;
45522;SDS011;31254;51.680;5.394;2022-07-01T11:53:51;4.50;;;0.68;;
45522;SDS011;31254;51.680;5.394;2022-07-01T11:56:31;3.30;;;0.90;;
45522;SDS011;31254;51.680;5.394;2022-07-01T11:59:07;5.60;;;0.60;;
45522;SDS011;31254;51.680;5.394;2022-07-01T12:01:35;6.53;;;1.00;;
45522;SDS011;31254;51.680;5.394;2022-07-01T12:04:05;3.95;;;0.90;;
45522;SDS011;31254;51.680;5.394;2022-07-01T12:06:35;2.10;;;0.70;;
45522;SDS011;31254;51.680;5.394;2022-07-01T12:09:05;3.42;;;0.80;;
45522;SDS011;31254;51.680;5.394;2022-07-01T12:11:32;2.88;;;0.70;;
45522;SDS011;31254;51.680;5.394;2022-07-01T12:14:04;5.50;;;0.70;;
45522;SDS011;31254;51.680;5.394;2022-07-01T12:16:39;4.38;;;0.80;;
45522;SDS011;31254;51.680;5.394;2022-07-01T12:19:07;2.60;;;0.70;;
45522;SDS011;31254;51.680;5.394;2022-07-01T12:21:49;2.78;;;0.63;;
45522;SDS011;31254;51.680;5.394;2022-07-01T12:24:17;4.38;;;0.85;;
45522;SDS011;31254;51.680;5.394;2022-07-01T12:29:22;1.77;;;0.63;;
45522;SDS011;31254;51.680;5.394;2022-07-01T12:32:00;5.28;;;0.50;;
45522;SDS011;31254;51.680;5.394;2022-07-01T12:34:48;2.88;;;0.73;;
45522;SDS011;31254;51.680;5.394;2022-07-01T12:37:27;4.80;;;0.80;;
45522;SDS011;31254;51.680;5.394;2022-07-01T12:40:05;3.70;;;0.60;;
45522;SDS011;31254;51.680;5.394;2022-07-01T12:42:46;2.10;;;0.88;;
45522;SDS011;31254;51.680;5.394;2022-07-01T12:45:17;4.68;;;0.80;;
45522;SDS011;31254;51.680;5.394;2022-07-01T12:47:50;4.10;;;0.60;;
45522;SDS011;31254;51.680;5.394;2022-07-01T12:58:07;6.45;;;1.25;;
45522;SDS011;31254;51.680;5.394;2022-07-01T13:00:37;1.45;;;0.50;;
45522;SDS011;31254;51.680;5.394;2022-07-01T13:03:05;2.95;;;0.90;;
45522;SDS011;31254;51.680;5.394;2022-07-01T13:05:33;5.03;;;0.80;;
45522;SDS011;31254;51.680;5.394;2022-07-01T13:08:01;3.08;;;0.80;;
45522;SDS011;31254;51.680;5.394;2022-07-01T13:10:29;2.95;;;0.70;;
45522;SDS011;31254;51.680;5.394;2022-07-01T13:12:56;3.83;;;0.90;;
45522;SDS011;31254;51.680;5.394;2022-07-01T13:15:23;6.70;;;0.80;;
45522;SDS011;31254;51.680;5.394;2022-07-01T13:17:49;2.35;;;0.60;;
45522;SDS011;31254;51.680;5.394;2022-07-01T13:20:17;2.03;;;0.68;;
45522;SDS011;31254;51.680;5.394;2022-07-01T13:22:46;2.88;;;0.75;;
45522;SDS011;31254;51.680;5.394;2022-07-01T13:25:13;2.70;;;0.80;;
45522;SDS011;31254;51.680;5.394;2022-07-01T13:27:40;4.80;;;0.88;;
45522;SDS011;31254;51.680;5.394;2022-07-01T13:30:10;3.78;;;0.60;;
45522;SDS011;31254;51.680;5.394;2022-07-01T13:32:37;2.60;;;0.70;;
45522;SDS011;31254;51.680;5.394;2022-07-01T13:35:07;4.72;;;0.70;;
45522;SDS011;31254;51.680;5.394;2022-07-01T13:37:35;3.88;;;0.85;;
45522;SDS011;31254;51.680;5.394;2022-07-01T13:40:02;4.78;;;0.90;;
45522;SDS011;31254;51.680;5.394;2022-07-01T13:42:29;3.38;;;0.68;;
45522;SDS011;31254;51.680;5.394;2022-07-01T13:44:56;3.92;;;0.63;;
45522;SDS011;31254;51.680;5.394;2022-07-01T13:47:22;6.57;;;0.73;;
45522;SDS011;31254;51.680;5.394;2022-07-01T13:49:50;1.20;;;0.35;;
45522;SDS011;31254;51.680;5.394;2022-07-01T13:52:16;2.88;;;0.57;;
45522;SDS011;31254;51.680;5.394;2022-07-01T13:54:43;3.40;;;0.43;;
45522;SDS011;31254;51.680;5.394;2022-07-01T13:57:10;1.85;;;0.50;;
45522;SDS011;31254;51.680;5.394;2022-07-01T13:59:36;5.68;;;0.52;;
45522;SDS011;31254;51.680;5.394;2022-07-01T14:02:10;2.40;;;0.55;;
45522;SDS011;31254;51.680;5.394;2022-07-01T14:04:37;1.25;;;0.40;;
45522;SDS011;31254;51.680;5.394;2022-07-01T14:07:04;2.13;;;0.55;;
45522;SDS011;31254;51.680;5.394;2022-07-01T14:09:31;3.38;;;0.60;;
45522;SDS011;31254;51.680;5.394;2022-07-01T14:12:03;2.00;;;0.40;;
45522;SDS011;31254;51.680;5.394;2022-07-01T14:14:38;1.75;;;0.45;;
45522;SDS011;31254;51.680;5.394;2022-07-01T14:17:04;13.73;;;1.05;;
45522;SDS011;31254;51.680;5.394;2022-07-01T14:19:31;4.47;;;0.98;;
45522;SDS011;31254;51.680;5.394;2022-07-01T14:21:58;1.63;;;0.47;;
45522;SDS011;31254;51.680;5.394;2022-07-01T14:24:26;1.33;;;0.50;;
45522;SDS011;31254;51.680;5.394;2022-07-01T14:26:53;3.85;;;0.52;;
45522;SDS011;31254;51.680;5.394;2022-07-01T14:29:19;5.35;;;0.80;;
45522;SDS011;31254;51.680;5.394;2022-07-01T14:31:46;2.38;;;0.80;;
45522;SDS011;31254;51.680;5.394;2022-07-01T14:34:13;4.15;;;1.20;;
45522;SDS011;31254;51.680;5.394;2022-07-01T14:36:40;4.72;;;1.10;;
45522;SDS011;31254;51.680;5.394;2022-07-01T14:39:07;4.10;;;0.93;;
45522;SDS011;31254;51.680;5.394;2022-07-01T14:41:33;5.15;;;1.00;;
45522;SDS011;31254;51.680;5.394;2022-07-01T14:44:00;5.93;;;1.25;;
45522;SDS011;31254;51.680;5.394;2022-07-01T14:46:27;4.57;;;1.10;;
45522;SDS011;31254;51.680;5.394;2022-07-01T14:48:53;4.85;;;0.95;;
45522;SDS011;31254;51.680;5.394;2022-07-01T14:51:22;5.25;;;1.10;;
45522;SDS011;31254;51.680;5.394;2022-07-01T14:53:49;6.15;;;0.70;;
45522;SDS011;31254;51.680;5.394;2022-07-01T14:56:21;4.28;;;1.60;;
45522;SDS011;31254;51.680;5.394;2022-07-01T14:58:48;2.67;;;1.08;;
45522;SDS011;31254;51.680;5.394;2022-07-01T15:01:17;5.43;;;1.02;;
45522;SDS011;31254;51.680;5.394;2022-07-01T15:03:44;4.75;;;1.02;;
45522;SDS011;31254;51.680;5.394;2022-07-01T15:06:11;3.35;;;1.02;;
45522;SDS011;31254;51.680;5.394;2022-07-01T15:08:37;5.68;;;1.85;;
45522;SDS011;31254;51.680;5.394;2022-07-01T15:11:05;2.53;;;1.05;;